createdAt,value
2019-03-23T00:00:32.605Z,978.1
2019-03-23T00:01:32.596Z,978.08
2019-03-23T00:02:32.590Z,978.13
2019-03-23T00:03:32.578Z,978.1
2019-03-23T00:04:32.570Z,978.1
2019-03-23T00:05:32.562Z,978.09
2019-03-23T00:06:32.553Z,978.02
2019-03-23T00:07:32.544Z,978.02
2019-03-23T00:08:32.537Z,977.99
2019-03-23T00:09:32.529Z,978.03
2019-03-23T00:10:32.519Z,978.01
2019-03-23T00:11:32.512Z,977.99
2019-03-23T00:12:32.505Z,978.02
2019-03-23T00:13:32.495Z,977.99
2019-03-23T00:14:32.486Z,977.99
2019-03-23T00:15:32.479Z,977.97
2019-03-23T00:16:32.474Z,977.97
2019-03-23T00:17:32.476Z,977.97
2019-03-23T00:18:32.453Z,977.99
2019-03-23T00:19:32.446Z,978.01
2019-03-23T00:20:32.440Z,978.01
2019-03-23T00:21:32.426Z,978.01
2019-03-23T00:22:32.417Z,978.05
2019-03-23T00:23:32.409Z,978.05
2019-03-23T00:24:32.406Z,978.08
2019-03-23T00:25:32.391Z,978.06
2019-03-23T00:26:32.383Z,978.08
2019-03-23T00:27:32.376Z,978.06
2019-03-23T00:28:32.366Z,978.03
2019-03-23T00:29:32.357Z,978.03
2019-03-23T00:30:32.352Z,978.04
2019-03-23T00:31:32.340Z,978.08
2019-03-23T00:32:32.332Z,978.03
2019-03-23T00:33:32.323Z,978.05
2019-03-23T00:34:32.314Z,978.05
2019-03-23T00:35:32.305Z,978.09
2019-03-23T00:36:40.963Z,978.08
2019-03-23T00:37:32.289Z,978.05
2019-03-23T00:38:32.280Z,978.08
2019-03-23T00:39:32.473Z,978.07
2019-03-23T00:40:32.264Z,978.06
2019-03-23T00:41:32.295Z,978.05
2019-03-23T00:42:32.246Z,978.06
2019-03-23T00:43:32.238Z,978.04
2019-03-23T00:44:32.229Z,978.06
2019-03-23T00:45:32.223Z,978.11
2019-03-23T00:46:32.215Z,978.09
2019-03-23T00:47:32.204Z,978.09
2019-03-23T00:48:32.195Z,978.07
2019-03-23T00:49:32.187Z,978.07
2019-03-23T00:50:32.178Z,978.03
2019-03-23T00:51:32.170Z,978.03
2019-03-23T00:52:32.165Z,977.98
2019-03-23T00:53:32.153Z,978
2019-03-23T00:54:32.143Z,978
2019-03-23T00:55:32.135Z,977.95
2019-03-23T00:56:32.127Z,977.99
2019-03-23T00:57:32.117Z,977.99
2019-03-23T00:58:32.111Z,977.95
2019-03-23T00:59:32.101Z,977.97
2019-03-23T01:00:32.093Z,977.96
2019-03-23T01:01:32.084Z,977.98
2019-03-23T01:02:32.077Z,978.04
2019-03-23T01:03:32.068Z,977.97
2019-03-23T01:04:32.057Z,977.98
2019-03-23T01:05:32.049Z,978.01
2019-03-23T01:06:32.041Z,977.99
2019-03-23T01:07:32.037Z,978
2019-03-23T01:08:32.024Z,977.98
2019-03-23T01:09:32.016Z,977.98
2019-03-23T01:10:32.006Z,977.97
2019-03-23T01:11:31.999Z,977.99
2019-03-23T01:12:31.988Z,977.97
2019-03-23T01:13:31.987Z,977.94
2019-03-23T01:14:31.973Z,977.94
2019-03-23T01:15:31.965Z,977.94
2019-03-23T01:16:31.954Z,977.92
2019-03-23T01:17:31.946Z,977.93
2019-03-23T01:18:31.938Z,977.91
2019-03-23T01:19:31.928Z,977.94
2019-03-23T01:20:31.920Z,977.98
2019-03-23T01:21:31.913Z,977.94
2019-03-23T01:22:31.903Z,977.94
2019-03-23T01:23:31.898Z,977.96
2019-03-23T01:24:31.887Z,977.94
2019-03-23T01:25:31.883Z,977.95
2019-03-23T01:26:31.870Z,977.95
2019-03-23T01:27:31.862Z,977.95
2019-03-23T01:28:31.850Z,977.99
2019-03-23T01:29:31.842Z,977.94
2019-03-23T01:30:31.833Z,977.93
2019-03-23T01:31:31.825Z,977.94
2019-03-23T01:32:31.816Z,977.94
2019-03-23T01:33:31.807Z,977.96
2019-03-23T01:34:31.799Z,977.95
2019-03-23T01:35:31.790Z,977.93
2019-03-23T01:36:31.782Z,977.95
2019-03-23T01:37:31.772Z,977.94
2019-03-23T01:38:31.764Z,977.92
2019-03-23T01:39:31.756Z,977.98
2019-03-23T01:40:31.746Z,977.94
2019-03-23T01:41:31.737Z,977.97
2019-03-23T01:42:31.730Z,977.98
2019-03-23T01:43:31.721Z,977.97
2019-03-23T01:44:31.712Z,978
2019-03-23T01:45:31.704Z,977.99
2019-03-23T01:46:31.694Z,977.94
2019-03-23T01:47:31.687Z,977.95
2019-03-23T01:48:31.677Z,977.96
2019-03-23T01:49:31.668Z,977.97
2019-03-23T01:50:31.659Z,977.97
2019-03-23T01:51:31.651Z,977.97
2019-03-23T01:52:31.641Z,977.96
2019-03-23T01:53:31.633Z,977.93
2019-03-23T01:54:31.625Z,977.93
2019-03-23T01:55:31.616Z,977.97
2019-03-23T01:56:31.607Z,977.96
2019-03-23T01:57:31.648Z,977.96
2019-03-23T01:58:31.592Z,977.96
2019-03-23T01:59:31.581Z,977.97
2019-03-23T02:00:31.572Z,977.97
2019-03-23T02:01:31.565Z,977.91
2019-03-23T02:02:31.555Z,977.96
2019-03-23T02:03:31.546Z,977.88
2019-03-23T02:04:31.538Z,977.88
2019-03-23T02:05:31.528Z,977.88
2019-03-23T02:06:31.521Z,977.86
2019-03-23T02:07:31.513Z,977.9
2019-03-23T02:08:31.504Z,977.85
2019-03-23T02:09:31.496Z,977.87
2019-03-23T02:10:31.485Z,977.87
2019-03-23T02:11:31.477Z,977.88
2019-03-23T02:12:31.468Z,977.88
2019-03-23T02:13:31.459Z,977.92
2019-03-23T02:14:31.451Z,977.89
2019-03-23T02:15:31.442Z,977.91
2019-03-23T02:16:31.434Z,977.96
2019-03-23T02:17:31.424Z,977.91
2019-03-23T02:18:31.416Z,977.91
2019-03-23T02:19:31.407Z,977.97
2019-03-23T02:20:31.399Z,977.97
2019-03-23T02:21:31.388Z,977.96
2019-03-23T02:22:31.381Z,978.01
2019-03-23T02:23:31.374Z,977.99
2019-03-23T02:24:31.363Z,977.99
2019-03-23T02:25:31.354Z,978.01
2019-03-23T02:26:31.346Z,978.02
2019-03-23T02:27:31.337Z,978
2019-03-23T02:28:31.330Z,977.98
2019-03-23T02:29:31.320Z,977.95
2019-03-23T02:30:31.361Z,977.95
2019-03-23T02:31:31.303Z,978.01
2019-03-23T02:32:31.293Z,977.94
2019-03-23T02:33:31.284Z,977.95
2019-03-23T02:34:31.284Z,977.92
2019-03-23T02:35:31.267Z,977.99
2019-03-23T02:36:31.263Z,977.96
2019-03-23T02:37:31.250Z,977.94
2019-03-23T02:38:31.246Z,977.96
2019-03-23T02:39:31.239Z,977.94
2019-03-23T02:40:31.222Z,977.91
2019-03-23T02:41:31.217Z,977.95
2019-03-23T02:42:31.206Z,977.93
2019-03-23T02:43:31.197Z,977.94
2019-03-23T02:44:31.190Z,977.95
2019-03-23T02:45:31.180Z,977.95
2019-03-23T02:46:31.174Z,977.92
2019-03-23T02:47:31.161Z,977.91
2019-03-23T02:48:31.153Z,977.92
2019-03-23T02:49:31.145Z,977.97
2019-03-23T02:50:31.134Z,977.98
2019-03-23T02:51:31.126Z,978.04
2019-03-23T02:52:31.118Z,978.03
2019-03-23T02:53:31.111Z,978.08
2019-03-23T02:54:31.104Z,978.06
2019-03-23T02:55:31.090Z,978.06
2019-03-23T02:56:31.082Z,978.05
2019-03-23T02:57:31.074Z,978.09
2019-03-23T02:58:31.065Z,978.03
2019-03-23T02:59:31.055Z,978.09
2019-03-23T03:00:31.048Z,978.07
2019-03-23T03:01:31.037Z,978.03
2019-03-23T03:02:31.029Z,978.05
2019-03-23T03:03:31.019Z,978.03
2019-03-23T03:04:31.011Z,978.04
2019-03-23T03:05:31.003Z,978.04
2019-03-23T03:06:30.993Z,978.05
2019-03-23T03:07:40.950Z,978.03
2019-03-23T03:08:31.004Z,978
2019-03-23T03:09:30.968Z,978.03
2019-03-23T03:10:30.958Z,978.03
2019-03-23T03:11:30.950Z,978.04
2019-03-23T03:12:30.940Z,978.06
2019-03-23T03:13:30.933Z,978.02
2019-03-23T03:14:30.923Z,978.05
2019-03-23T03:15:30.965Z,978.06
2019-03-23T03:16:30.923Z,978.08
2019-03-23T03:17:30.897Z,978.05
2019-03-23T03:18:30.887Z,978.04
2019-03-23T03:19:30.884Z,978.02
2019-03-23T03:20:30.868Z,978.02
2019-03-23T03:21:30.861Z,978
2019-03-23T03:22:30.851Z,977.99
2019-03-23T03:23:30.842Z,978
2019-03-23T03:24:30.836Z,977.97
2019-03-23T03:25:30.826Z,977.93
2019-03-23T03:26:30.816Z,977.96
2019-03-23T03:27:30.811Z,977.93
2019-03-23T03:28:30.798Z,977.9
2019-03-23T03:29:30.788Z,977.9
2019-03-23T03:30:30.782Z,977.92
2019-03-23T03:31:30.772Z,977.92
2019-03-23T03:32:30.763Z,977.92
2019-03-23T03:33:30.754Z,977.92
2019-03-23T03:34:30.746Z,977.95
2019-03-23T03:35:30.735Z,977.95
2019-03-23T03:36:30.727Z,977.95
2019-03-23T03:37:30.720Z,977.98
2019-03-23T03:38:30.709Z,978
2019-03-23T03:39:30.703Z,977.96
2019-03-23T03:40:30.691Z,977.96
2019-03-23T03:41:30.688Z,977.98
2019-03-23T03:42:30.674Z,978
2019-03-23T03:43:30.663Z,977.96
2019-03-23T03:44:30.656Z,977.99
2019-03-23T03:45:30.651Z,977.97
2019-03-23T03:46:30.638Z,977.94
2019-03-23T03:47:30.640Z,978
2019-03-23T03:48:30.621Z,978
2019-03-23T03:49:30.610Z,977.97
2019-03-23T03:50:30.600Z,977.98
2019-03-23T03:51:30.592Z,977.99
2019-03-23T03:52:30.585Z,977.99
2019-03-23T03:53:30.582Z,977.99
2019-03-23T03:54:30.566Z,978
2019-03-23T03:55:30.562Z,977.99
2019-03-23T03:56:30.550Z,977.97
2019-03-23T03:57:30.543Z,978
2019-03-23T03:58:30.531Z,978.01
2019-03-23T03:59:30.523Z,978.03
2019-03-23T04:00:30.512Z,978.03
2019-03-23T04:01:30.505Z,978.03
2019-03-23T04:02:30.496Z,978.04
2019-03-23T04:03:30.486Z,978.03
2019-03-23T04:04:30.480Z,978.03
2019-03-23T04:05:30.471Z,978.01
2019-03-23T04:06:30.459Z,978.06
2019-03-23T04:07:30.449Z,978.04
2019-03-23T04:08:30.442Z,978.05
2019-03-23T04:09:30.433Z,978.07
2019-03-23T04:10:30.424Z,978.11
2019-03-23T04:11:30.415Z,978.12
2019-03-23T04:12:30.409Z,978.15
2019-03-23T04:13:30.396Z,978.18
2019-03-23T04:14:30.387Z,978.16
2019-03-23T04:15:30.379Z,978.16
2019-03-23T04:16:30.369Z,978.14
2019-03-23T04:17:30.360Z,978.14
2019-03-23T04:18:30.351Z,978.14
2019-03-23T04:19:30.342Z,978.18
2019-03-23T04:20:30.340Z,978.17
2019-03-23T04:21:30.325Z,978.18
2019-03-23T04:22:30.317Z,978.23
2019-03-23T04:23:30.320Z,978.21
2019-03-23T04:24:30.298Z,978.21
2019-03-23T04:25:30.288Z,978.2
2019-03-23T04:26:30.279Z,978.2
2019-03-23T04:27:30.272Z,978.17
2019-03-23T04:28:30.263Z,978.18
2019-03-23T04:29:30.270Z,978.13
2019-03-23T04:30:30.257Z,978.14
2019-03-23T04:31:30.241Z,978.13
2019-03-23T04:32:30.227Z,978.11
2019-03-23T04:33:30.216Z,978.16
2019-03-23T04:34:30.207Z,978.13
2019-03-23T04:35:30.200Z,978.11
2019-03-23T04:36:30.191Z,978.11
2019-03-23T04:37:30.183Z,978.17
2019-03-23T04:38:30.175Z,978.14
2019-03-23T04:39:30.162Z,978.16
2019-03-23T04:40:30.153Z,978.11
2019-03-23T04:41:30.144Z,978.09
2019-03-23T04:42:30.135Z,978.13
2019-03-23T04:43:30.126Z,978.1
2019-03-23T04:44:30.116Z,978.14
2019-03-23T04:45:30.108Z,978.16
2019-03-23T04:46:30.098Z,978.2
2019-03-23T04:47:30.091Z,978.17
2019-03-23T04:48:30.081Z,978.18
2019-03-23T04:49:30.071Z,978.19
2019-03-23T04:50:30.063Z,978.18
2019-03-23T04:51:30.053Z,978.18
2019-03-23T04:52:30.045Z,978.21
2019-03-23T04:53:30.036Z,978.21
2019-03-23T04:54:30.027Z,978.19
2019-03-23T04:55:30.017Z,978.23
2019-03-23T04:56:30.008Z,978.18
2019-03-23T04:57:29.999Z,978.21
2019-03-23T04:58:29.990Z,978.18
2019-03-23T04:59:29.981Z,978.16
2019-03-23T05:00:29.971Z,978.15
2019-03-23T05:01:29.962Z,978.12
2019-03-23T05:02:29.953Z,978.13
2019-03-23T05:03:29.945Z,978.13
2019-03-23T05:04:29.938Z,978.12
2019-03-23T05:05:29.928Z,978.12
2019-03-23T05:06:29.917Z,978.15
2019-03-23T05:07:29.908Z,978.13
2019-03-23T05:08:33.475Z,978.15
2019-03-23T05:09:29.889Z,978.13
2019-03-23T05:10:29.880Z,978.15
2019-03-23T05:11:29.873Z,978.15
2019-03-23T05:12:29.863Z,978.17
2019-03-23T05:13:29.853Z,978.17
2019-03-23T05:14:29.844Z,978.18
2019-03-23T05:15:29.835Z,978.19
2019-03-23T05:16:29.827Z,978.22
2019-03-23T05:17:29.817Z,978.2
2019-03-23T05:18:29.808Z,978.16
2019-03-23T05:19:29.800Z,978.19
2019-03-23T05:20:29.790Z,978.2
2019-03-23T05:21:29.781Z,978.2
2019-03-23T05:22:29.771Z,978.23
2019-03-23T05:23:29.763Z,978.22
2019-03-23T05:24:29.752Z,978.24
2019-03-23T05:25:29.744Z,978.24
2019-03-23T05:26:29.735Z,978.21
2019-03-23T05:27:29.726Z,978.22
2019-03-23T05:28:29.717Z,978.21
2019-03-23T05:29:29.709Z,978.23
2019-03-23T05:30:29.703Z,978.23
2019-03-23T05:31:29.692Z,978.28
2019-03-23T05:32:29.681Z,978.22
2019-03-23T05:33:29.673Z,978.24
2019-03-23T05:34:29.663Z,978.28
2019-03-23T05:35:29.655Z,978.24
2019-03-23T05:36:29.645Z,978.26
2019-03-23T05:37:29.639Z,978.28
2019-03-23T05:38:29.627Z,978.26
2019-03-23T05:39:29.618Z,978.28
2019-03-23T05:40:29.607Z,978.32
2019-03-23T05:41:30.905Z,978.36
2019-03-23T05:42:29.589Z,978.35
2019-03-23T05:43:29.583Z,978.39
2019-03-23T05:44:29.572Z,978.38
2019-03-23T05:45:29.563Z,978.33
2019-03-23T05:46:29.555Z,978.36
2019-03-23T05:47:29.546Z,978.35
2019-03-23T05:48:29.540Z,978.41
2019-03-23T05:49:29.526Z,978.37
2019-03-23T05:50:29.518Z,978.35
2019-03-23T05:51:30.762Z,978.35
2019-03-23T05:52:29.500Z,978.33
2019-03-23T05:53:29.492Z,978.33
2019-03-23T05:54:29.480Z,978.37
2019-03-23T05:55:29.471Z,978.33
2019-03-23T05:56:29.462Z,978.31
2019-03-23T05:57:29.452Z,978.34
2019-03-23T05:58:29.442Z,978.33
2019-03-23T05:59:29.435Z,978.35
2019-03-23T06:00:29.431Z,978.37
2019-03-23T06:01:29.416Z,978.35
2019-03-23T06:02:29.407Z,978.33
2019-03-23T06:03:29.398Z,978.35
2019-03-23T06:04:29.388Z,978.4
2019-03-23T06:05:29.380Z,978.37
2019-03-23T06:06:29.370Z,978.34
2019-03-23T06:07:29.363Z,978.35
2019-03-23T06:08:29.352Z,978.37
2019-03-23T06:09:29.343Z,978.34
2019-03-23T06:10:29.334Z,978.32
2019-03-23T06:11:29.324Z,978.36
2019-03-23T06:12:29.315Z,978.36
2019-03-23T06:13:29.306Z,978.35
2019-03-23T06:14:29.298Z,978.36
2019-03-23T06:15:29.287Z,978.39
2019-03-23T06:16:29.278Z,978.36
2019-03-23T06:17:29.270Z,978.37
2019-03-23T06:18:29.262Z,978.37
2019-03-23T06:19:29.251Z,978.37
2019-03-23T06:20:29.243Z,978.37
2019-03-23T06:21:29.233Z,978.37
2019-03-23T06:22:29.225Z,978.4
2019-03-23T06:23:29.214Z,978.4
2019-03-23T06:24:29.205Z,978.38
2019-03-23T06:25:29.199Z,978.41
2019-03-23T06:26:29.188Z,978.38
2019-03-23T06:27:29.177Z,978.39
2019-03-23T06:28:29.171Z,978.34
2019-03-23T06:29:29.162Z,978.37
2019-03-23T06:30:29.149Z,978.37
2019-03-23T06:31:29.140Z,978.37
2019-03-23T06:32:29.133Z,978.34
2019-03-23T06:33:29.123Z,978.37
2019-03-23T06:34:29.116Z,978.36
2019-03-23T06:35:29.106Z,978.35
2019-03-23T06:36:29.097Z,978.36
2019-03-23T06:37:29.086Z,978.38
2019-03-23T06:38:29.077Z,978.38
2019-03-23T06:39:29.068Z,978.36
2019-03-23T06:40:29.069Z,978.37
2019-03-23T06:41:29.049Z,978.39
2019-03-23T06:42:29.040Z,978.39
2019-03-23T06:43:29.033Z,978.37
2019-03-23T06:44:29.021Z,978.33
2019-03-23T06:45:29.014Z,978.36
2019-03-23T06:46:29.005Z,978.35
2019-03-23T06:47:28.996Z,978.35
2019-03-23T06:48:28.986Z,978.34
2019-03-23T06:49:28.977Z,978.38
2019-03-23T06:50:28.968Z,978.38
2019-03-23T06:51:28.962Z,978.41
2019-03-23T06:52:28.950Z,978.39
2019-03-23T06:53:28.941Z,978.4
2019-03-23T06:54:28.936Z,978.38
2019-03-23T06:55:28.923Z,978.39
2019-03-23T06:56:28.914Z,978.37
2019-03-23T06:57:28.905Z,978.39
2019-03-23T06:58:28.898Z,978.41
2019-03-23T06:59:28.886Z,978.36
2019-03-23T07:00:28.879Z,978.39
2019-03-23T07:01:28.868Z,978.4
2019-03-23T07:02:28.860Z,978.36
2019-03-23T07:03:28.851Z,978.4
2019-03-23T07:04:28.847Z,978.39
2019-03-23T07:05:28.834Z,978.42
2019-03-23T07:06:28.827Z,978.42
2019-03-23T07:07:28.816Z,978.39
2019-03-23T07:08:32.061Z,978.42
2019-03-23T07:09:28.800Z,978.42
2019-03-23T07:10:28.788Z,978.43
2019-03-23T07:11:28.780Z,978.44
2019-03-23T07:12:28.771Z,978.46
2019-03-23T07:13:28.761Z,978.45
2019-03-23T07:14:28.752Z,978.43
2019-03-23T07:15:28.744Z,978.42
2019-03-23T07:16:28.736Z,978.46
2019-03-23T07:17:28.725Z,978.48
2019-03-23T07:18:28.717Z,978.46
2019-03-23T07:19:28.708Z,978.47
2019-03-23T07:20:28.699Z,978.47
2019-03-23T07:21:28.690Z,978.46
2019-03-23T07:22:28.681Z,978.48
2019-03-23T07:23:28.673Z,978.45
2019-03-23T07:24:28.669Z,978.5
2019-03-23T07:25:28.653Z,978.5
2019-03-23T07:26:28.645Z,978.5
2019-03-23T07:27:28.636Z,978.45
2019-03-23T07:28:28.628Z,978.48
2019-03-23T07:29:28.619Z,978.45
2019-03-23T07:30:28.611Z,978.43
2019-03-23T07:31:28.601Z,978.43
2019-03-23T07:32:28.593Z,978.45
2019-03-23T07:33:28.584Z,978.46
2019-03-23T07:34:28.576Z,978.48
2019-03-23T07:35:28.565Z,978.47
2019-03-23T07:36:28.557Z,978.51
2019-03-23T07:37:28.548Z,978.51
2019-03-23T07:38:28.538Z,978.47
2019-03-23T07:39:30.429Z,978.47
2019-03-23T07:40:28.521Z,978.47
2019-03-23T07:41:28.517Z,978.46
2019-03-23T07:42:28.504Z,978.46
2019-03-23T07:43:28.493Z,978.46
2019-03-23T07:44:28.486Z,978.47
2019-03-23T07:45:28.479Z,978.45
2019-03-23T07:46:28.466Z,978.47
2019-03-23T07:47:28.459Z,978.47
2019-03-23T07:48:28.631Z,978.43
2019-03-23T07:49:28.442Z,978.42
2019-03-23T07:50:28.432Z,978.41
2019-03-23T07:51:28.425Z,978.41
2019-03-23T07:52:28.415Z,978.4
2019-03-23T07:53:28.407Z,978.39
2019-03-23T07:54:28.397Z,978.41
2019-03-23T07:55:28.387Z,978.36
2019-03-23T07:56:28.380Z,978.37
2019-03-23T07:57:28.371Z,978.37
2019-03-23T07:58:28.362Z,978.4
2019-03-23T07:59:28.356Z,978.39
2019-03-23T08:00:28.348Z,978.39
2019-03-23T08:01:28.335Z,978.39
2019-03-23T08:02:28.327Z,978.39
2019-03-23T08:03:28.318Z,978.39
2019-03-23T08:04:28.310Z,978.39
2019-03-23T08:05:28.300Z,978.39
2019-03-23T08:06:28.295Z,978.35
2019-03-23T08:07:28.286Z,978.35
2019-03-23T08:08:28.274Z,978.36
2019-03-23T08:09:37.270Z,978.35
2019-03-23T08:10:28.257Z,978.3
2019-03-23T08:11:28.301Z,978.33
2019-03-23T08:12:28.240Z,978.34
2019-03-23T08:13:28.353Z,978.36
2019-03-23T08:14:28.224Z,978.29
2019-03-23T08:15:28.214Z,978.36
2019-03-23T08:16:28.205Z,978.34
2019-03-23T08:17:28.196Z,978.35
2019-03-23T08:18:28.191Z,978.3
2019-03-23T08:19:28.179Z,978.31
2019-03-23T08:20:28.171Z,978.28
2019-03-23T08:21:28.161Z,978.31
2019-03-23T08:22:28.153Z,978.31
2019-03-23T08:23:28.144Z,978.31
2019-03-23T08:24:28.136Z,978.31
2019-03-23T08:25:28.126Z,978.35
2019-03-23T08:26:28.119Z,978.34
2019-03-23T08:27:28.109Z,978.36
2019-03-23T08:28:28.101Z,978.36
2019-03-23T08:29:28.092Z,978.34
2019-03-23T08:30:28.084Z,978.33
2019-03-23T08:31:28.079Z,978.31
2019-03-23T08:32:28.067Z,978.34
2019-03-23T08:33:28.062Z,978.39
2019-03-23T08:34:28.053Z,978.36
2019-03-23T08:35:28.045Z,978.4
2019-03-23T08:36:28.033Z,978.37
2019-03-23T08:37:28.024Z,978.36
2019-03-23T08:38:28.016Z,978.38
2019-03-23T08:39:28.010Z,978.37
2019-03-23T08:40:28.000Z,978.37
2019-03-23T08:41:27.991Z,978.37
2019-03-23T08:42:27.983Z,978.39
2019-03-23T08:43:27.973Z,978.38
2019-03-23T08:44:27.966Z,978.42
2019-03-23T08:45:27.956Z,978.43
2019-03-23T08:46:27.951Z,978.42
2019-03-23T08:47:27.942Z,978.45
2019-03-23T08:48:27.930Z,978.44
2019-03-23T08:49:28.682Z,978.44
2019-03-23T08:50:27.915Z,978.41
2019-03-23T08:51:27.905Z,978.46
2019-03-23T08:52:28.954Z,978.43
2019-03-23T08:53:27.888Z,978.4
2019-03-23T08:54:27.880Z,978.41
2019-03-23T08:55:27.874Z,978.4
2019-03-23T08:56:27.862Z,978.41
2019-03-23T08:57:27.854Z,978.4
2019-03-23T08:58:27.846Z,978.43
2019-03-23T08:59:27.836Z,978.44
2019-03-23T09:00:27.828Z,978.41
2019-03-23T09:01:27.820Z,978.42
2019-03-23T09:02:27.811Z,978.43
2019-03-23T09:03:27.802Z,978.36
2019-03-23T09:04:27.794Z,978.32
2019-03-23T09:05:27.787Z,978.38
2019-03-23T09:06:27.789Z,978.35
2019-03-23T09:07:27.769Z,978.37
2019-03-23T09:08:27.761Z,978.34
2019-03-23T09:09:27.752Z,978.33
2019-03-23T09:10:27.745Z,978.29
2019-03-23T09:11:27.736Z,978.36
2019-03-23T09:12:27.726Z,978.35
2019-03-23T09:13:27.718Z,978.33
2019-03-23T09:14:27.712Z,978.33
2019-03-23T09:15:27.703Z,978.32
2019-03-23T09:16:27.693Z,978.37
2019-03-23T09:17:27.685Z,978.28
2019-03-23T09:18:27.676Z,978.31
2019-03-23T09:19:27.668Z,978.32
2019-03-23T09:20:29.470Z,978.29
2019-03-23T09:21:27.651Z,978.28
2019-03-23T09:22:27.643Z,978.24
2019-03-23T09:23:27.634Z,978.24
2019-03-23T09:24:27.627Z,978.24
2019-03-23T09:25:27.617Z,978.24
2019-03-23T09:26:27.610Z,978.26
2019-03-23T09:27:27.601Z,978.25
2019-03-23T09:28:27.593Z,978.23
2019-03-23T09:29:27.584Z,978.22
2019-03-23T09:30:27.578Z,978.2
2019-03-23T09:31:27.567Z,978.25
2019-03-23T09:32:27.559Z,978.19
2019-03-23T09:33:27.553Z,978.21
2019-03-23T09:34:27.592Z,978.19
2019-03-23T09:35:27.534Z,978.13
2019-03-23T09:36:27.526Z,978.11
2019-03-23T09:37:27.518Z,978.14
2019-03-23T09:38:27.509Z,978.13
2019-03-23T09:39:27.502Z,978.09
2019-03-23T09:40:27.492Z,978.1
2019-03-23T09:41:27.483Z,978.12
2019-03-23T09:42:27.475Z,978.11
2019-03-23T09:43:27.466Z,978.08
2019-03-23T09:44:27.458Z,978.1
2019-03-23T09:45:27.451Z,978.1
2019-03-23T09:46:27.442Z,978.06
2019-03-23T09:47:27.435Z,978.05
2019-03-23T09:48:27.432Z,978.05
2019-03-23T09:49:27.417Z,978.04
2019-03-23T09:50:27.409Z,977.99
2019-03-23T09:51:29.258Z,977.96
2019-03-23T09:52:27.392Z,977.98
2019-03-23T09:53:27.384Z,977.99
2019-03-23T09:54:27.375Z,977.93
2019-03-23T09:55:28.635Z,977.9
2019-03-23T09:56:27.359Z,977.93
2019-03-23T09:57:27.351Z,977.9
2019-03-23T09:58:27.342Z,977.89
2019-03-23T09:59:27.334Z,977.87
2019-03-23T10:00:27.326Z,977.84
2019-03-23T10:01:27.320Z,977.84
2019-03-23T10:02:27.309Z,977.88
2019-03-23T10:03:27.310Z,977.88
2019-03-23T10:04:27.293Z,977.87
2019-03-23T10:05:27.285Z,977.83
2019-03-23T10:06:27.277Z,977.86
2019-03-23T10:07:27.271Z,977.83
2019-03-23T10:08:27.260Z,977.83
2019-03-23T10:09:27.252Z,977.85
2019-03-23T10:10:27.243Z,977.81
2019-03-23T10:11:27.236Z,977.81
2019-03-23T10:12:27.230Z,977.76
2019-03-23T10:13:27.219Z,977.79
2019-03-23T10:14:27.212Z,977.76
2019-03-23T10:15:27.204Z,977.74
2019-03-23T10:16:27.196Z,977.73
2019-03-23T10:17:27.190Z,977.71
2019-03-23T10:18:27.181Z,977.66
2019-03-23T10:19:27.172Z,977.69
2019-03-23T10:20:27.162Z,977.67
2019-03-23T10:21:27.155Z,977.68
2019-03-23T10:22:27.147Z,977.68
2019-03-23T10:23:27.137Z,977.7
2019-03-23T10:24:27.129Z,977.67
2019-03-23T10:25:27.121Z,977.69
2019-03-23T10:26:27.113Z,977.7
2019-03-23T10:27:27.104Z,977.66
2019-03-23T10:28:27.097Z,977.64
2019-03-23T10:29:27.089Z,977.66
2019-03-23T10:30:27.082Z,977.63
2019-03-23T10:31:27.074Z,977.63
2019-03-23T10:32:27.064Z,977.62
2019-03-23T10:33:27.058Z,977.62
2019-03-23T10:34:27.047Z,977.61
2019-03-23T10:35:27.041Z,977.65
2019-03-23T10:36:27.031Z,977.62
2019-03-23T10:37:27.025Z,977.61
2019-03-23T10:38:27.015Z,977.61
2019-03-23T10:39:27.008Z,977.58
2019-03-23T10:40:32.239Z,977.6
2019-03-23T10:41:26.992Z,977.6
2019-03-23T10:42:26.985Z,977.58
2019-03-23T10:43:26.979Z,977.6
2019-03-23T10:44:26.968Z,977.56
2019-03-23T10:45:26.959Z,977.51
2019-03-23T10:46:26.951Z,977.53
2019-03-23T10:47:27.031Z,977.5
2019-03-23T10:48:26.936Z,977.51
2019-03-23T10:49:26.928Z,977.49
2019-03-23T10:50:26.922Z,977.49
2019-03-23T10:51:26.911Z,977.44
2019-03-23T10:52:26.903Z,977.43
2019-03-23T10:53:26.896Z,977.43
2019-03-23T10:54:26.888Z,977.39
2019-03-23T10:55:26.880Z,977.41
2019-03-23T10:56:26.871Z,977.37
2019-03-23T10:57:26.864Z,977.35
2019-03-23T10:58:26.856Z,977.39
2019-03-23T10:59:28.001Z,977.36
2019-03-23T11:00:26.840Z,977.39
2019-03-23T11:01:26.832Z,977.34
2019-03-23T11:02:26.824Z,977.37
2019-03-23T11:03:26.815Z,977.35
2019-03-23T11:04:26.807Z,977.34
2019-03-23T11:05:26.799Z,977.37
2019-03-23T11:06:26.793Z,977.34
2019-03-23T11:07:26.782Z,977.32
2019-03-23T11:08:26.775Z,977.31
2019-03-23T11:09:26.768Z,977.29
2019-03-23T11:10:26.761Z,977.29
2019-03-23T11:11:26.751Z,977.3
2019-03-23T11:12:26.746Z,977.3
2019-03-23T11:13:26.737Z,977.24
2019-03-23T11:14:26.729Z,977.24
2019-03-23T11:15:26.721Z,977.25
2019-03-23T11:16:26.712Z,977.19
2019-03-23T11:17:26.704Z,977.19
2019-03-23T11:18:26.697Z,977.16
2019-03-23T11:19:26.688Z,977.18
2019-03-23T11:20:26.681Z,977.18
2019-03-23T11:21:26.673Z,977.13
2019-03-23T11:22:26.664Z,977.12
2019-03-23T11:23:26.657Z,977.09
2019-03-23T11:24:26.649Z,977.08
2019-03-23T11:25:26.641Z,977.1
2019-03-23T11:26:28.112Z,977.07
2019-03-23T11:27:26.625Z,977.07
2019-03-23T11:28:26.618Z,977.06
2019-03-23T11:29:26.609Z,976.99
2019-03-23T11:30:26.602Z,977.01
2019-03-23T11:31:26.595Z,977
2019-03-23T11:32:26.586Z,976.99
2019-03-23T11:33:26.578Z,977
2019-03-23T11:34:26.574Z,976.98
2019-03-23T11:35:26.562Z,976.95
2019-03-23T11:36:26.555Z,976.97
2019-03-23T11:37:26.604Z,976.93
2019-03-23T11:38:26.540Z,976.92
2019-03-23T11:39:26.531Z,976.9
2019-03-23T11:40:26.523Z,976.89
2019-03-23T11:41:26.515Z,976.91
2019-03-23T11:42:26.508Z,976.91
2019-03-23T11:43:26.501Z,976.94
2019-03-23T11:44:26.492Z,976.91
2019-03-23T11:45:26.485Z,976.89
2019-03-23T11:46:26.477Z,976.87
2019-03-23T11:47:26.469Z,976.9
2019-03-23T11:48:26.462Z,976.85
2019-03-23T11:49:26.556Z,976.87
2019-03-23T11:50:26.451Z,976.81
2019-03-23T11:51:26.439Z,976.81
2019-03-23T11:52:26.431Z,976.82
2019-03-23T11:53:26.425Z,976.77
2019-03-23T11:54:26.418Z,976.79
2019-03-23T11:55:26.408Z,976.76
2019-03-23T11:56:30.380Z,976.73
2019-03-23T11:57:26.394Z,976.77
2019-03-23T11:58:26.384Z,976.73
2019-03-23T11:59:26.377Z,976.74
2019-03-23T12:00:26.369Z,976.7
2019-03-23T12:01:26.365Z,976.75
2019-03-23T12:02:26.355Z,976.7
2019-03-23T12:03:26.346Z,976.69
2019-03-23T12:04:26.339Z,976.68
2019-03-23T12:05:26.331Z,976.68
2019-03-23T12:06:26.323Z,976.66
2019-03-23T12:07:26.316Z,976.7
2019-03-23T12:08:26.308Z,976.68
2019-03-23T12:09:26.299Z,976.69
2019-03-23T12:10:26.293Z,976.67
2019-03-23T12:11:26.284Z,976.66
2019-03-23T12:12:26.278Z,976.64
2019-03-23T12:13:26.269Z,976.63
2019-03-23T12:14:26.261Z,976.57
2019-03-23T12:15:26.304Z,976.58
2019-03-23T12:16:26.246Z,976.58
2019-03-23T12:17:26.241Z,976.54
2019-03-23T12:18:26.231Z,976.55
2019-03-23T12:19:26.223Z,976.53
2019-03-23T12:20:26.215Z,976.54
2019-03-23T12:21:26.212Z,976.57
2019-03-23T12:22:26.201Z,976.53
2019-03-23T12:23:26.193Z,976.54
2019-03-23T12:24:26.185Z,976.52
2019-03-23T12:25:26.177Z,976.5
2019-03-23T12:26:26.180Z,976.46
2019-03-23T12:27:26.198Z,976.49
2019-03-23T12:28:26.156Z,976.46
2019-03-23T12:29:26.146Z,976.43
2019-03-23T12:30:26.140Z,976.45
2019-03-23T12:31:26.132Z,976.42